sensor_id;sensor_type;location;lat;lon;timestamp;temperature;humidity
5009;DHT22;2523;51.058;6.922;2023-08-31T00:01:11;13.40;99.90
5009;DHT22;2523;51.058;6.922;2023-08-31T00:03:37;13.50;99.90
5009;DHT22;2523;51.058;6.922;2023-08-31T00:06:03;13.50;99.90
5009;DHT22;2523;51.058;6.922;2023-08-31T00:08:29;13.50;99.90
5009;DHT22;2523;51.058;6.922;2023-08-31T00:10:59;13.50;99.90
5009;DHT22;2523;51.058;6.922;2023-08-31T00:13:25;13.50;99.90
5009;DHT22;2523;51.058;6.922;2023-08-31T00:15:57;13.50;99.90
5009;DHT22;2523;51.058;6.922;2023-08-31T00:18:23;13.40;99.90
5009;DHT22;2523;51.058;6.922;2023-08-31T00:20:50;13.40;99.90
5009;DHT22;2523;51.058;6.922;2023-08-31T00:23:15;13.40;99.90
5009;DHT22;2523;51.058;6.922;2023-08-31T00:25:41;13.30;99.90
5009;DHT22;2523;51.058;6.922;2023-08-31T00:28:09;13.30;99.90
5009;DHT22;2523;51.058;6.922;2023-08-31T00:30:35;13.30;99.90
5009;DHT22;2523;51.058;6.922;2023-08-31T00:33:00;13.30;99.90
5009;DHT22;2523;51.058;6.922;2023-08-31T00:35:26;13.30;99.90
5009;DHT22;2523;51.058;6.922;2023-08-31T00:37:55;13.30;99.90
5009;DHT22;2523;51.058;6.922;2023-08-31T00:40:26;13.30;99.90
5009;DHT22;2523;51.058;6.922;2023-08-31T00:42:56;13.20;99.90
5009;DHT22;2523;51.058;6.922;2023-08-31T00:45:22;13.20;99.90
5009;DHT22;2523;51.058;6.922;2023-08-31T00:47:48;13.20;99.90
5009;DHT22;2523;51.058;6.922;2023-08-31T00:50:15;13.20;99.90
5009;DHT22;2523;51.058;6.922;2023-08-31T00:52:41;13.20;99.90
5009;DHT22;2523;51.058;6.922;2023-08-31T00:55:10;13.20;99.90
5009;DHT22;2523;51.058;6.922;2023-08-31T00:57:35;13.20;99.90
5009;DHT22;2523;51.058;6.922;2023-08-31T01:00:01;13.20;99.90
5009;DHT22;2523;51.058;6.922;2023-08-31T01:03:09;13.10;99.90
5009;DHT22;2523;51.058;6.922;2023-08-31T01:11:16;13.10;99.90
5009;DHT22;2523;51.058;6.922;2023-08-31T01:13:49;13.10;99.90
5009;DHT22;2523;51.058;6.922;2023-08-31T01:16:17;13.10;99.90
5009;DHT22;2523;51.058;6.922;2023-08-31T01:18:44;13.10;99.90
5009;DHT22;2523;51.058;6.922;2023-08-31T01:21:33;13.10;99.90
5009;DHT22;2523;51.058;6.922;2023-08-31T01:24:03;13.00;99.90
5009;DHT22;2523;51.058;6.922;2023-08-31T01:26:30;13.00;99.90
5009;DHT22;2523;51.058;6.922;2023-08-31T01:28:56;12.90;99.90
5009;DHT22;2523;51.058;6.922;2023-08-31T01:31:21;12.90;99.90
5009;DHT22;2523;51.058;6.922;2023-08-31T01:33:47;12.90;99.90
5009;DHT22;2523;51.058;6.922;2023-08-31T01:36:29;12.80;99.90
5009;DHT22;2523;51.058;6.922;2023-08-31T01:39:13;12.90;99.90
5009;DHT22;2523;51.058;6.922;2023-08-31T01:41:40;12.80;99.90
5009;DHT22;2523;51.058;6.922;2023-08-31T01:44:09;12.80;99.90
5009;DHT22;2523;51.058;6.922;2023-08-31T01:46:39;12.80;99.90
5009;DHT22;2523;51.058;6.922;2023-08-31T01:49:05;12.70;99.90
5009;DHT22;2523;51.058;6.922;2023-08-31T01:51:31;12.70;99.90
5009;DHT22;2523;51.058;6.922;2023-08-31T01:53:56;12.70;99.90
5009;DHT22;2523;51.058;6.922;2023-08-31T01:56:23;12.70;99.90
5009;DHT22;2523;51.058;6.922;2023-08-31T01:58:49;12.60;99.90
5009;DHT22;2523;51.058;6.922;2023-08-31T02:01:14;12.60;99.90
5009;DHT22;2523;51.058;6.922;2023-08-31T02:03:40;12.60;99.90
5009;DHT22;2523;51.058;6.922;2023-08-31T02:06:05;12.60;99.90
5009;DHT22;2523;51.058;6.922;2023-08-31T02:08:32;12.50;99.90
5009;DHT22;2523;51.058;6.922;2023-08-31T02:10:57;12.50;99.90
5009;DHT22;2523;51.058;6.922;2023-08-31T02:13:23;12.50;99.90
5009;DHT22;2523;51.058;6.922;2023-08-31T02:15:52;12.50;99.90
5009;DHT22;2523;51.058;6.922;2023-08-31T02:18:18;12.50;99.90
5009;DHT22;2523;51.058;6.922;2023-08-31T02:20:43;12.50;99.90
5009;DHT22;2523;51.058;6.922;2023-08-31T02:23:09;12.50;99.90
5009;DHT22;2523;51.058;6.922;2023-08-31T02:25:35;12.50;99.90
5009;DHT22;2523;51.058;6.922;2023-08-31T02:28:00;12.40;99.90
5009;DHT22;2523;51.058;6.922;2023-08-31T02:30:26;12.40;99.90
5009;DHT22;2523;51.058;6.922;2023-08-31T02:32:51;12.40;99.90
5009;DHT22;2523;51.058;6.922;2023-08-31T02:35:17;12.40;99.90
5009;DHT22;2523;51.058;6.922;2023-08-31T02:37:43;12.40;99.90
5009;DHT22;2523;51.058;6.922;2023-08-31T02:40:09;12.40;99.90
5009;DHT22;2523;51.058;6.922;2023-08-31T02:42:34;12.30;99.90
5009;DHT22;2523;51.058;6.922;2023-08-31T02:45:00;12.30;99.90
5009;DHT22;2523;51.058;6.922;2023-08-31T02:47:26;12.30;99.90
5009;DHT22;2523;51.058;6.922;2023-08-31T02:49:51;12.20;99.90
5009;DHT22;2523;51.058;6.922;2023-08-31T02:52:17;12.20;99.90
5009;DHT22;2523;51.058;6.922;2023-08-31T02:54:43;12.20;99.90
5009;DHT22;2523;51.058;6.922;2023-08-31T02:57:08;12.20;99.90
5009;DHT22;2523;51.058;6.922;2023-08-31T02:59:34;12.20;99.90
5009;DHT22;2523;51.058;6.922;2023-08-31T03:02:02;12.20;99.90
5009;DHT22;2523;51.058;6.922;2023-08-31T03:04:28;12.20;99.90
5009;DHT22;2523;51.058;6.922;2023-08-31T03:06:55;12.10;99.90
5009;DHT22;2523;51.058;6.922;2023-08-31T03:09:21;12.10;99.90
5009;DHT22;2523;51.058;6.922;2023-08-31T03:11:46;12.10;99.90
5009;DHT22;2523;51.058;6.922;2023-08-31T03:14:12;12.10;99.90
5009;DHT22;2523;51.058;6.922;2023-08-31T03:16:37;12.10;99.90
5009;DHT22;2523;51.058;6.922;2023-08-31T03:19:03;12.10;99.90
5009;DHT22;2523;51.058;6.922;2023-08-31T03:21:29;12.10;99.90
5009;DHT22;2523;51.058;6.922;2023-08-31T03:23:54;12.10;99.90
5009;DHT22;2523;51.058;6.922;2023-08-31T03:26:20;12.10;99.90
5009;DHT22;2523;51.058;6.922;2023-08-31T03:28:45;12.20;99.90
5009;DHT22;2523;51.058;6.922;2023-08-31T03:31:11;12.20;99.90
5009;DHT22;2523;51.058;6.922;2023-08-31T03:33:36;12.30;99.90
5009;DHT22;2523;51.058;6.922;2023-08-31T03:36:03;12.30;99.90
5009;DHT22;2523;51.058;6.922;2023-08-31T03:38:33;12.40;99.90
5009;DHT22;2523;51.058;6.922;2023-08-31T03:41:03;12.50;99.90
5009;DHT22;2523;51.058;6.922;2023-08-31T03:43:29;12.50;99.90
5009;DHT22;2523;51.058;6.922;2023-08-31T03:45:55;12.50;99.90
5009;DHT22;2523;51.058;6.922;2023-08-31T03:48:22;12.60;99.90
5009;DHT22;2523;51.058;6.922;2023-08-31T03:50:51;12.60;99.90
5009;DHT22;2523;51.058;6.922;2023-08-31T03:53:17;12.70;99.90
5009;DHT22;2523;51.058;6.922;2023-08-31T03:55:43;12.70;99.90
5009;DHT22;2523;51.058;6.922;2023-08-31T03:58:08;12.70;99.90
5009;DHT22;2523;51.058;6.922;2023-08-31T04:00:34;12.80;99.90
5009;DHT22;2523;51.058;6.922;2023-08-31T04:02:59;12.80;99.90
5009;DHT22;2523;51.058;6.922;2023-08-31T04:05:26;12.80;99.90
5009;DHT22;2523;51.058;6.922;2023-08-31T04:07:52;12.80;99.90
5009;DHT22;2523;51.058;6.922;2023-08-31T04:10:17;12.80;99.90
5009;DHT22;2523;51.058;6.922;2023-08-31T04:12:44;12.80;99.90
5009;DHT22;2523;51.058;6.922;2023-08-31T04:15:10;12.80;99.90
5009;DHT22;2523;51.058;6.922;2023-08-31T04:17:35;12.70;99.90
5009;DHT22;2523;51.058;6.922;2023-08-31T04:20:01;12.70;99.90
5009;DHT22;2523;51.058;6.922;2023-08-31T04:22:26;12.80;99.90
5009;DHT22;2523;51.058;6.922;2023-08-31T04:24:53;12.70;99.90
5009;DHT22;2523;51.058;6.922;2023-08-31T04:27:18;12.80;99.90
5009;DHT22;2523;51.058;6.922;2023-08-31T04:29:44;12.80;99.90
5009;DHT22;2523;51.058;6.922;2023-08-31T04:32:09;12.80;99.90
5009;DHT22;2523;51.058;6.922;2023-08-31T04:34:35;12.80;99.90
5009;DHT22;2523;51.058;6.922;2023-08-31T04:37:01;12.80;99.90
5009;DHT22;2523;51.058;6.922;2023-08-31T04:39:27;12.80;99.90
5009;DHT22;2523;51.058;6.922;2023-08-31T04:41:52;12.80;99.90
5009;DHT22;2523;51.058;6.922;2023-08-31T04:44:18;12.90;99.90
5009;DHT22;2523;51.058;6.922;2023-08-31T04:46:44;12.90;99.90
5009;DHT22;2523;51.058;6.922;2023-08-31T04:49:09;12.90;99.90
5009;DHT22;2523;51.058;6.922;2023-08-31T04:51:35;12.80;99.90
5009;DHT22;2523;51.058;6.922;2023-08-31T04:54:04;12.80;99.90
5009;DHT22;2523;51.058;6.922;2023-08-31T04:56:31;12.80;99.90
5009;DHT22;2523;51.058;6.922;2023-08-31T04:58:58;12.70;99.90
5009;DHT22;2523;51.058;6.922;2023-08-31T05:01:24;12.70;99.90
5009;DHT22;2523;51.058;6.922;2023-08-31T05:03:50;12.70;99.90
5009;DHT22;2523;51.058;6.922;2023-08-31T05:06:15;12.60;99.90
5009;DHT22;2523;51.058;6.922;2023-08-31T05:08:41;12.60;99.90
5009;DHT22;2523;51.058;6.922;2023-08-31T05:11:06;12.60;99.90
5009;DHT22;2523;51.058;6.922;2023-08-31T05:13:33;12.60;99.90
5009;DHT22;2523;51.058;6.922;2023-08-31T05:15:59;12.50;99.90
5009;DHT22;2523;51.058;6.922;2023-08-31T05:18:24;12.50;99.90
5009;DHT22;2523;51.058;6.922;2023-08-31T05:20:50;12.50;99.90
5009;DHT22;2523;51.058;6.922;2023-08-31T05:23:16;12.50;99.90
5009;DHT22;2523;51.058;6.922;2023-08-31T05:25:42;12.50;99.90
5009;DHT22;2523;51.058;6.922;2023-08-31T05:28:08;12.60;99.90
5009;DHT22;2523;51.058;6.922;2023-08-31T05:30:35;12.50;99.90
5009;DHT22;2523;51.058;6.922;2023-08-31T05:33:01;12.60;99.90
5009;DHT22;2523;51.058;6.922;2023-08-31T05:35:27;12.60;99.90
5009;DHT22;2523;51.058;6.922;2023-08-31T05:37:52;12.60;99.90
5009;DHT22;2523;51.058;6.922;2023-08-31T05:40:18;12.60;99.90
5009;DHT22;2523;51.058;6.922;2023-08-31T05:42:44;12.70;99.90
5009;DHT22;2523;51.058;6.922;2023-08-31T05:45:09;12.70;99.90
5009;DHT22;2523;51.058;6.922;2023-08-31T05:47:35;12.70;99.90
5009;DHT22;2523;51.058;6.922;2023-08-31T05:50:01;12.70;99.90
5009;DHT22;2523;51.058;6.922;2023-08-31T05:52:27;12.70;99.90
5009;DHT22;2523;51.058;6.922;2023-08-31T05:54:53;12.70;99.90
5009;DHT22;2523;51.058;6.922;2023-08-31T05:57:19;12.80;99.90
5009;DHT22;2523;51.058;6.922;2023-08-31T05:59:46;12.80;99.90
5009;DHT22;2523;51.058;6.922;2023-08-31T06:02:12;12.80;99.90
5009;DHT22;2523;51.058;6.922;2023-08-31T06:04:38;12.90;99.90
5009;DHT22;2523;51.058;6.922;2023-08-31T06:07:03;12.90;99.90
5009;DHT22;2523;51.058;6.922;2023-08-31T06:09:29;13.00;99.90
5009;DHT22;2523;51.058;6.922;2023-08-31T06:11:54;13.00;99.90
5009;DHT22;2523;51.058;6.922;2023-08-31T06:14:20;13.10;99.90
5009;DHT22;2523;51.058;6.922;2023-08-31T06:16:45;13.10;99.90
5009;DHT22;2523;51.058;6.922;2023-08-31T06:19:11;13.20;99.90
5009;DHT22;2523;51.058;6.922;2023-08-31T06:21:40;13.20;99.90
5009;DHT22;2523;51.058;6.922;2023-08-31T06:24:07;13.20;99.90
5009;DHT22;2523;51.058;6.922;2023-08-31T06:26:35;13.30;99.90
5009;DHT22;2523;51.058;6.922;2023-08-31T06:29:01;13.30;99.90
5009;DHT22;2523;51.058;6.922;2023-08-31T06:31:28;13.40;99.90
5009;DHT22;2523;51.058;6.922;2023-08-31T06:33:54;13.50;99.90
5009;DHT22;2523;51.058;6.922;2023-08-31T06:36:20;13.50;99.90
5009;DHT22;2523;51.058;6.922;2023-08-31T06:38:45;13.50;99.90
5009;DHT22;2523;51.058;6.922;2023-08-31T06:41:11;13.60;99.90
5009;DHT22;2523;51.058;6.922;2023-08-31T06:43:36;13.70;99.90
5009;DHT22;2523;51.058;6.922;2023-08-31T06:46:02;13.70;99.90
5009;DHT22;2523;51.058;6.922;2023-08-31T06:48:27;13.70;99.90
5009;DHT22;2523;51.058;6.922;2023-08-31T06:50:54;13.80;99.90
5009;DHT22;2523;51.058;6.922;2023-08-31T06:53:19;13.90;99.90
5009;DHT22;2523;51.058;6.922;2023-08-31T06:55:45;13.90;99.90
5009;DHT22;2523;51.058;6.922;2023-08-31T06:58:13;14.00;99.90
5009;DHT22;2523;51.058;6.922;2023-08-31T07:00:39;14.00;99.90
5009;DHT22;2523;51.058;6.922;2023-08-31T07:03:05;14.10;99.90
5009;DHT22;2523;51.058;6.922;2023-08-31T07:05:34;14.10;99.90
5009;DHT22;2523;51.058;6.922;2023-08-31T07:08:01;14.10;99.90
5009;DHT22;2523;51.058;6.922;2023-08-31T07:10:27;14.20;99.90
5009;DHT22;2523;51.058;6.922;2023-08-31T07:12:53;14.30;99.90
5009;DHT22;2523;51.058;6.922;2023-08-31T07:15:18;14.30;99.90
5009;DHT22;2523;51.058;6.922;2023-08-31T07:17:44;14.30;99.90
5009;DHT22;2523;51.058;6.922;2023-08-31T07:20:10;14.40;99.90
5009;DHT22;2523;51.058;6.922;2023-08-31T07:22:37;14.40;99.90
5009;DHT22;2523;51.058;6.922;2023-08-31T07:25:03;14.50;99.90
5009;DHT22;2523;51.058;6.922;2023-08-31T07:27:29;14.60;99.90
5009;DHT22;2523;51.058;6.922;2023-08-31T07:29:54;14.70;99.90
5009;DHT22;2523;51.058;6.922;2023-08-31T07:32:20;14.80;99.90
5009;DHT22;2523;51.058;6.922;2023-08-31T07:34:46;14.90;99.90
5009;DHT22;2523;51.058;6.922;2023-08-31T07:37:11;15.00;99.90
5009;DHT22;2523;51.058;6.922;2023-08-31T07:39:37;15.00;99.90
5009;DHT22;2523;51.058;6.922;2023-08-31T07:42:02;15.00;99.90
5009;DHT22;2523;51.058;6.922;2023-08-31T07:44:28;15.10;99.90
5009;DHT22;2523;51.058;6.922;2023-08-31T07:46:53;15.00;99.90
5009;DHT22;2523;51.058;6.922;2023-08-31T07:49:19;15.00;99.90
5009;DHT22;2523;51.058;6.922;2023-08-31T07:51:44;15.10;99.90
5009;DHT22;2523;51.058;6.922;2023-08-31T07:54:10;15.10;99.90
5009;DHT22;2523;51.058;6.922;2023-08-31T07:56:35;15.10;99.90
5009;DHT22;2523;51.058;6.922;2023-08-31T07:59:01;15.20;99.90
5009;DHT22;2523;51.058;6.922;2023-08-31T08:01:27;15.30;99.90
5009;DHT22;2523;51.058;6.922;2023-08-31T08:03:52;15.30;99.90
5009;DHT22;2523;51.058;6.922;2023-08-31T08:06:18;15.40;99.90
5009;DHT22;2523;51.058;6.922;2023-08-31T08:08:45;15.50;99.90
5009;DHT22;2523;51.058;6.922;2023-08-31T08:11:10;15.70;99.90
5009;DHT22;2523;51.058;6.922;2023-08-31T08:13:36;15.90;99.90
5009;DHT22;2523;51.058;6.922;2023-08-31T08:16:01;16.00;99.90
5009;DHT22;2523;51.058;6.922;2023-08-31T08:18:27;16.00;99.90
5009;DHT22;2523;51.058;6.922;2023-08-31T08:20:53;16.00;99.90
5009;DHT22;2523;51.058;6.922;2023-08-31T08:23:19;16.00;99.90
5009;DHT22;2523;51.058;6.922;2023-08-31T08:25:44;16.00;99.90
5009;DHT22;2523;51.058;6.922;2023-08-31T08:28:10;16.10;99.90
5009;DHT22;2523;51.058;6.922;2023-08-31T08:30:36;16.10;99.90
5009;DHT22;2523;51.058;6.922;2023-08-31T08:33:01;16.10;99.90
5009;DHT22;2523;51.058;6.922;2023-08-31T08:35:27;16.20;99.90
5009;DHT22;2523;51.058;6.922;2023-08-31T08:37:53;16.20;99.90
5009;DHT22;2523;51.058;6.922;2023-08-31T08:40:18;16.20;99.90
5009;DHT22;2523;51.058;6.922;2023-08-31T08:42:46;16.30;99.90
5009;DHT22;2523;51.058;6.922;2023-08-31T08:45:14;16.20;99.90
5009;DHT22;2523;51.058;6.922;2023-08-31T08:47:43;16.20;99.90
5009;DHT22;2523;51.058;6.922;2023-08-31T08:50:11;16.20;99.90
5009;DHT22;2523;51.058;6.922;2023-08-31T08:52:38;16.40;99.90
5009;DHT22;2523;51.058;6.922;2023-08-31T08:55:04;16.50;99.90
5009;DHT22;2523;51.058;6.922;2023-08-31T08:57:31;16.60;99.90
5009;DHT22;2523;51.058;6.922;2023-08-31T08:59:58;16.70;99.90
5009;DHT22;2523;51.058;6.922;2023-08-31T09:02:23;16.80;99.90
5009;DHT22;2523;51.058;6.922;2023-08-31T09:04:49;16.90;99.90
5009;DHT22;2523;51.058;6.922;2023-08-31T09:07:18;17.10;99.90
5009;DHT22;2523;51.058;6.922;2023-08-31T09:09:53;17.20;99.90
5009;DHT22;2523;51.058;6.922;2023-08-31T09:12:22;17.30;99.90
5009;DHT22;2523;51.058;6.922;2023-08-31T09:15:03;17.40;99.90
5009;DHT22;2523;51.058;6.922;2023-08-31T09:17:48;17.60;99.90
5009;DHT22;2523;51.058;6.922;2023-08-31T09:20:13;17.80;99.90
5009;DHT22;2523;51.058;6.922;2023-08-31T09:22:42;17.90;99.90
5009;DHT22;2523;51.058;6.922;2023-08-31T09:25:10;18.00;99.90
5009;DHT22;2523;51.058;6.922;2023-08-31T09:27:38;18.10;99.90
5009;DHT22;2523;51.058;6.922;2023-08-31T09:30:06;18.20;99.90
5009;DHT22;2523;51.058;6.922;2023-08-31T09:32:32;18.30;99.90
5009;DHT22;2523;51.058;6.922;2023-08-31T09:34:58;18.40;99.90
5009;DHT22;2523;51.058;6.922;2023-08-31T09:37:28;18.50;99.90
5009;DHT22;2523;51.058;6.922;2023-08-31T09:39:53;18.60;99.90
5009;DHT22;2523;51.058;6.922;2023-08-31T09:42:19;18.70;99.90
5009;DHT22;2523;51.058;6.922;2023-08-31T09:44:45;18.90;99.90
5009;DHT22;2523;51.058;6.922;2023-08-31T09:47:14;19.00;99.90
5009;DHT22;2523;51.058;6.922;2023-08-31T09:49:41;19.10;99.90
5009;DHT22;2523;51.058;6.922;2023-08-31T09:52:09;19.30;99.90
5009;DHT22;2523;51.058;6.922;2023-08-31T09:54:35;19.30;99.90
5009;DHT22;2523;51.058;6.922;2023-08-31T09:57:02;19.40;99.90
5009;DHT22;2523;51.058;6.922;2023-08-31T09:59:28;19.60;99.90
5009;DHT22;2523;51.058;6.922;2023-08-31T10:01:54;19.90;99.90
5009;DHT22;2523;51.058;6.922;2023-08-31T10:04:22;20.10;99.90
5009;DHT22;2523;51.058;6.922;2023-08-31T10:06:49;20.20;99.90
5009;DHT22;2523;51.058;6.922;2023-08-31T10:09:16;20.20;99.90
5009;DHT22;2523;51.058;6.922;2023-08-31T10:11:42;19.90;99.90
5009;DHT22;2523;51.058;6.922;2023-08-31T10:14:09;19.60;99.90
5009;DHT22;2523;51.058;6.922;2023-08-31T10:16:38;19.30;99.90
5009;DHT22;2523;51.058;6.922;2023-08-31T10:19:04;19.10;99.90
5009;DHT22;2523;51.058;6.922;2023-08-31T10:21:30;18.70;99.90
5009;DHT22;2523;51.058;6.922;2023-08-31T10:23:55;18.70;99.90
5009;DHT22;2523;51.058;6.922;2023-08-31T10:26:31;18.70;99.90
5009;DHT22;2523;51.058;6.922;2023-08-31T10:28:58;19.10;99.90
5009;DHT22;2523;51.058;6.922;2023-08-31T10:31:28;19.40;99.90
5009;DHT22;2523;51.058;6.922;2023-08-31T10:34:01;19.50;99.90
5009;DHT22;2523;51.058;6.922;2023-08-31T10:36:41;19.30;99.90
5009;DHT22;2523;51.058;6.922;2023-08-31T10:39:18;19.70;99.90
5009;DHT22;2523;51.058;6.922;2023-08-31T10:41:56;20.30;99.90
5009;DHT22;2523;51.058;6.922;2023-08-31T10:44:26;21.00;99.90
5009;DHT22;2523;51.058;6.922;2023-08-31T10:46:53;21.00;99.90
5009;DHT22;2523;51.058;6.922;2023-08-31T10:49:20;20.90;99.90
5009;DHT22;2523;51.058;6.922;2023-08-31T10:52:01;20.90;99.90
5009;DHT22;2523;51.058;6.922;2023-08-31T10:54:40;20.70;99.90
5009;DHT22;2523;51.058;6.922;2023-08-31T10:57:05;20.50;99.90
5009;DHT22;2523;51.058;6.922;2023-08-31T10:59:50;20.30;99.90
5009;DHT22;2523;51.058;6.922;2023-08-31T11:02:49;20.10;99.90
5009;DHT22;2523;51.058;6.922;2023-08-31T11:05:17;19.90;99.90
5009;DHT22;2523;51.058;6.922;2023-08-31T11:07:44;19.80;99.90
5009;DHT22;2523;51.058;6.922;2023-08-31T11:12:48;19.30;99.90
5009;DHT22;2523;51.058;6.922;2023-08-31T11:15:19;19.20;99.90
5009;DHT22;2523;51.058;6.922;2023-08-31T11:17:45;19.20;99.90
5009;DHT22;2523;51.058;6.922;2023-08-31T11:20:19;19.80;99.90
5009;DHT22;2523;51.058;6.922;2023-08-31T11:22:47;20.80;99.90
5009;DHT22;2523;51.058;6.922;2023-08-31T11:25:16;21.60;99.90
5009;DHT22;2523;51.058;6.922;2023-08-31T11:27:41;21.70;99.90
5009;DHT22;2523;51.058;6.922;2023-08-31T11:30:16;21.20;99.90
5009;DHT22;2523;51.058;6.922;2023-08-31T11:32:49;21.00;99.90
5009;DHT22;2523;51.058;6.922;2023-08-31T11:35:17;21.10;99.90
5009;DHT22;2523;51.058;6.922;2023-08-31T11:37:43;21.70;99.90
5009;DHT22;2523;51.058;6.922;2023-08-31T11:40:10;22.40;99.90
5009;DHT22;2523;51.058;6.922;2023-08-31T11:42:36;22.60;99.90
5009;DHT22;2523;51.058;6.922;2023-08-31T11:45:02;23.10;99.90
5009;DHT22;2523;51.058;6.922;2023-08-31T11:47:33;23.50;99.90
5009;DHT22;2523;51.058;6.922;2023-08-31T11:50:00;23.50;93.20
5009;DHT22;2523;51.058;6.922;2023-08-31T11:52:27;23.20;95.10
5009;DHT22;2523;51.058;6.922;2023-08-31T11:54:53;22.90;75.80
5009;DHT22;2523;51.058;6.922;2023-08-31T11:57:19;22.60;51.60
5009;DHT22;2523;51.058;6.922;2023-08-31T11:59:50;22.00;95.20
5009;DHT22;2523;51.058;6.922;2023-08-31T12:02:16;21.70;99.90
5009;DHT22;2523;51.058;6.922;2023-08-31T12:04:44;21.70;99.90
5009;DHT22;2523;51.058;6.922;2023-08-31T12:07:10;22.00;99.90
5009;DHT22;2523;51.058;6.922;2023-08-31T12:09:36;22.10;96.30
5009;DHT22;2523;51.058;6.922;2023-08-31T12:12:02;22.30;97.50
5009;DHT22;2523;51.058;6.922;2023-08-31T12:14:30;22.90;99.90
5009;DHT22;2523;51.058;6.922;2023-08-31T12:17:03;23.20;99.90
5009;DHT22;2523;51.058;6.922;2023-08-31T12:19:29;23.10;90.90
5009;DHT22;2523;51.058;6.922;2023-08-31T12:21:56;23.00;98.20
5009;DHT22;2523;51.058;6.922;2023-08-31T12:24:22;22.90;99.90
5009;DHT22;2523;51.058;6.922;2023-08-31T12:26:51;23.20;99.90
5009;DHT22;2523;51.058;6.922;2023-08-31T12:29:20;23.60;93.30
5009;DHT22;2523;51.058;6.922;2023-08-31T12:31:46;23.60;99.90
5009;DHT22;2523;51.058;6.922;2023-08-31T12:34:12;23.70;91.70
5009;DHT22;2523;51.058;6.922;2023-08-31T12:36:37;23.10;98.60
5009;DHT22;2523;51.058;6.922;2023-08-31T12:39:05;22.40;99.90
5009;DHT22;2523;51.058;6.922;2023-08-31T12:41:38;21.50;99.90
5009;DHT22;2523;51.058;6.922;2023-08-31T12:44:04;20.90;99.90
5009;DHT22;2523;51.058;6.922;2023-08-31T12:46:30;20.70;99.90
5009;DHT22;2523;51.058;6.922;2023-08-31T12:48:56;21.10;99.90
5009;DHT22;2523;51.058;6.922;2023-08-31T12:51:22;21.50;99.90
5009;DHT22;2523;51.058;6.922;2023-08-31T12:53:47;21.90;99.90
5009;DHT22;2523;51.058;6.922;2023-08-31T12:56:13;22.60;91.30
5009;DHT22;2523;51.058;6.922;2023-08-31T12:58:47;22.50;91.70
5009;DHT22;2523;51.058;6.922;2023-08-31T13:01:13;22.90;96.20
5009;DHT22;2523;51.058;6.922;2023-08-31T13:03:38;23.40;93.90
5009;DHT22;2523;51.058;6.922;2023-08-31T13:06:04;23.20;90.90
5009;DHT22;2523;51.058;6.922;2023-08-31T13:08:29;23.70;72.50
5009;DHT22;2523;51.058;6.922;2023-08-31T13:10:55;23.50;67.50
5009;DHT22;2523;51.058;6.922;2023-08-31T13:13:21;24.10;63.50
5009;DHT22;2523;51.058;6.922;2023-08-31T13:15:48;24.50;56.90
5009;DHT22;2523;51.058;6.922;2023-08-31T13:18:14;24.80;53.70
5009;DHT22;2523;51.058;6.922;2023-08-31T13:20:40;24.90;57.00
5009;DHT22;2523;51.058;6.922;2023-08-31T13:23:07;24.60;50.90
5009;DHT22;2523;51.058;6.922;2023-08-31T13:25:33;23.70;54.60
5009;DHT22;2523;51.058;6.922;2023-08-31T13:27:58;22.80;99.90
5009;DHT22;2523;51.058;6.922;2023-08-31T13:30:24;22.30;99.90
5009;DHT22;2523;51.058;6.922;2023-08-31T13:32:50;21.60;99.90
5009;DHT22;2523;51.058;6.922;2023-08-31T13:35:15;21.30;99.90
5009;DHT22;2523;51.058;6.922;2023-08-31T13:37:41;21.00;99.90
5009;DHT22;2523;51.058;6.922;2023-08-31T13:40:07;20.70;99.90
5009;DHT22;2523;51.058;6.922;2023-08-31T13:42:35;20.60;99.90
5009;DHT22;2523;51.058;6.922;2023-08-31T13:45:12;20.80;99.90
5009;DHT22;2523;51.058;6.922;2023-08-31T13:47:37;21.20;99.90
5009;DHT22;2523;51.058;6.922;2023-08-31T13:50:03;21.80;99.90
5009;DHT22;2523;51.058;6.922;2023-08-31T13:52:29;22.20;99.90
5009;DHT22;2523;51.058;6.922;2023-08-31T13:54:55;22.40;99.90
5009;DHT22;2523;51.058;6.922;2023-08-31T13:57:20;22.30;99.90
5009;DHT22;2523;51.058;6.922;2023-08-31T13:59:46;21.90;99.90
5009;DHT22;2523;51.058;6.922;2023-08-31T14:02:12;21.40;99.90
5009;DHT22;2523;51.058;6.922;2023-08-31T14:04:37;21.20;99.90
5009;DHT22;2523;51.058;6.922;2023-08-31T14:07:03;20.90;99.90
5009;DHT22;2523;51.058;6.922;2023-08-31T14:09:29;20.80;99.90
5009;DHT22;2523;51.058;6.922;2023-08-31T14:11:55;20.70;99.90
5009;DHT22;2523;51.058;6.922;2023-08-31T14:14:22;20.80;99.90
5009;DHT22;2523;51.058;6.922;2023-08-31T14:16:49;20.70;99.90
5009;DHT22;2523;51.058;6.922;2023-08-31T14:19:14;20.60;99.90
5009;DHT22;2523;51.058;6.922;2023-08-31T14:21:40;20.50;99.90
5009;DHT22;2523;51.058;6.922;2023-08-31T14:24:06;20.50;99.90
5009;DHT22;2523;51.058;6.922;2023-08-31T14:26:32;20.40;99.90
5009;DHT22;2523;51.058;6.922;2023-08-31T14:28:57;20.30;99.90
5009;DHT22;2523;51.058;6.922;2023-08-31T14:31:23;20.30;99.90
5009;DHT22;2523;51.058;6.922;2023-08-31T14:33:49;20.30;99.90
5009;DHT22;2523;51.058;6.922;2023-08-31T14:36:16;20.30;99.90
5009;DHT22;2523;51.058;6.922;2023-08-31T14:38:41;20.40;99.90
5009;DHT22;2523;51.058;6.922;2023-08-31T14:41:07;20.40;99.90
5009;DHT22;2523;51.058;6.922;2023-08-31T14:43:33;20.50;99.90
5009;DHT22;2523;51.058;6.922;2023-08-31T14:45:59;20.50;99.90
5009;DHT22;2523;51.058;6.922;2023-08-31T14:48:29;20.40;99.90
5009;DHT22;2523;51.058;6.922;2023-08-31T14:50:55;20.30;99.90
5009;DHT22;2523;51.058;6.922;2023-08-31T14:53:21;20.20;99.90
5009;DHT22;2523;51.058;6.922;2023-08-31T14:55:51;20.00;99.90
5009;DHT22;2523;51.058;6.922;2023-08-31T14:58:18;19.90;99.90
5009;DHT22;2523;51.058;6.922;2023-08-31T15:00:44;19.80;99.90
5009;DHT22;2523;51.058;6.922;2023-08-31T15:03:10;19.80;99.90
5009;DHT22;2523;51.058;6.922;2023-08-31T15:05:35;19.80;99.90
5009;DHT22;2523;51.058;6.922;2023-08-31T15:08:03;19.90;99.90
5009;DHT22;2523;51.058;6.922;2023-08-31T15:10:29;20.00;99.90
5009;DHT22;2523;51.058;6.922;2023-08-31T15:12:54;19.90;99.90
5009;DHT22;2523;51.058;6.922;2023-08-31T15:15:26;19.90;99.90
5009;DHT22;2523;51.058;6.922;2023-08-31T15:17:52;19.80;99.90
5009;DHT22;2523;51.058;6.922;2023-08-31T15:20:18;19.70;99.90
5009;DHT22;2523;51.058;6.922;2023-08-31T15:22:43;19.60;99.90
5009;DHT22;2523;51.058;6.922;2023-08-31T15:25:09;19.60;99.90
5009;DHT22;2523;51.058;6.922;2023-08-31T15:27:35;19.60;99.90
5009;DHT22;2523;51.058;6.922;2023-08-31T15:30:01;19.50;99.90
5009;DHT22;2523;51.058;6.922;2023-08-31T15:32:27;19.50;99.90
5009;DHT22;2523;51.058;6.922;2023-08-31T15:34:52;19.40;99.90
5009;DHT22;2523;51.058;6.922;2023-08-31T15:37:19;19.40;99.90
5009;DHT22;2523;51.058;6.922;2023-08-31T15:39:45;19.40;99.90
5009;DHT22;2523;51.058;6.922;2023-08-31T15:42:11;19.30;99.90
5009;DHT22;2523;51.058;6.922;2023-08-31T15:44:40;19.40;99.90
5009;DHT22;2523;51.058;6.922;2023-08-31T15:47:06;19.40;99.90
5009;DHT22;2523;51.058;6.922;2023-08-31T15:49:31;19.40;99.90
5009;DHT22;2523;51.058;6.922;2023-08-31T15:51:57;19.30;99.90
5009;DHT22;2523;51.058;6.922;2023-08-31T15:54:22;19.30;99.90
5009;DHT22;2523;51.058;6.922;2023-08-31T15:56:48;19.30;99.90
5009;DHT22;2523;51.058;6.922;2023-08-31T15:59:14;19.30;99.90
5009;DHT22;2523;51.058;6.922;2023-08-31T16:01:39;19.40;99.90
5009;DHT22;2523;51.058;6.922;2023-08-31T16:04:05;19.50;99.90
5009;DHT22;2523;51.058;6.922;2023-08-31T16:06:30;19.50;99.90
5009;DHT22;2523;51.058;6.922;2023-08-31T16:08:56;19.50;99.90